Time;durP1;ratioP1;P1;durP2;ratioP2;P2;SDS_P1;SDS_P2;PMS_P1;PMS_P2;Temp;Humidity;BMP_temperature;BMP_pressure;BME280_temperature;BME280_humidity;BME280_pressure;Samples;Min_cycle;Max_cycle;Signal;HPM_P1;HPM_P2
2022/03/17 00:02:05;;;;;;;25.37;22.67;;;5.40;99.90;;;;;;5059882;28;20208;-76
2022/03/17 00:04:32;;;;;;;25.57;22.87;;;5.40;99.90;;;;;;5052604;28;20721;-75
2022/03/17 00:06:58;;;;;;;26.33;23.20;;;5.40;99.90;;;;;;5067653;28;20305;-75
2022/03/17 00:09:24;;;;;;;25.90;22.80;;;5.40;99.90;;;;;;5063687;28;20206;-76
2022/03/17 00:11:50;;;;;;;26.47;22.17;;;5.40;99.90;;;;;;5064316;28;20218;-76
2022/03/17 00:14:16;;;;;;;27.23;23.87;;;5.40;99.90;;;;;;5054642;28;20196;-76
2022/03/17 00:16:42;;;;;;;24.10;21.60;;;5.40;99.90;;;;;;5066792;28;20321;-76
2022/03/17 00:19:08;;;;;;;24.73;22.07;;;5.30;99.90;;;;;;5064410;28;20210;-76
2022/03/17 00:21:38;;;;;;;24.73;21.90;;;5.30;99.90;;;;;;5059274;28;20171;-76
2022/03/17 00:24:08;;;;;;;27.97;23.47;;;5.30;99.90;;;;;;5056022;28;20208;-75
2022/03/17 00:26:35;;;;;;;24.80;22.00;;;5.20;99.90;;;;;;5066316;28;20232;-75
2022/03/17 00:29:11;;;;;;;25.93;22.40;;;5.20;99.90;;;;;;5066539;28;20168;-75
2022/03/17 00:31:37;;;;;;;26.60;22.97;;;5.20;99.90;;;;;;5064280;28;20179;-76
2022/03/17 00:34:05;;;;;;;27.57;23.00;;;5.20;99.90;;;;;;5058648;28;20211;-76
2022/03/17 00:36:34;;;;;;;24.37;21.00;;;5.10;99.90;;;;;;5063834;28;20249;-75
2022/03/17 00:39:00;;;;;;;26.13;22.53;;;5.10;99.90;;;;;;5063084;28;20180;-75
2022/03/17 00:41:25;;;;;;;25.23;21.33;;;5.00;99.90;;;;;;5072839;28;20183;-76
2022/03/17 00:43:51;;;;;;;25.67;22.57;;;5.00;99.90;;;;;;5068684;28;20211;-76
2022/03/17 00:46:17;;;;;;;25.23;22.53;;;5.00;99.90;;;;;;5074945;28;20187;-76
2022/03/17 00:48:42;;;;;;;25.50;22.80;;;5.00;99.90;;;;;;5056597;28;20184;-75
2022/03/17 00:51:08;;;;;;;26.90;22.53;;;5.00;99.90;;;;;;5068431;28;20179;-74
2022/03/17 00:53:33;;;;;;;26.37;23.47;;;5.00;99.90;;;;;;5067180;28;20568;-76
2022/03/17 00:55:59;;;;;;;25.33;22.63;;;4.90;99.90;;;;;;5064891;28;20668;-75
2022/03/17 00:58:25;;;;;;;28.80;24.83;;;4.80;99.90;;;;;;5057175;28;20262;-73
2022/03/17 01:00:50;;;;;;;25.90;22.27;;;4.80;99.90;;;;;;5066801;28;20179;-73
2022/03/17 01:03:16;;;;;;;24.83;22.23;;;4.80;99.90;;;;;;5063013;28;20204;-73
2022/03/17 01:05:42;;;;;;;26.57;22.80;;;4.90;99.90;;;;;;5066541;28;20184;-73
2022/03/17 01:08:08;;;;;;;27.80;24.80;;;4.90;99.90;;;;;;5057525;28;20215;-73
2022/03/17 01:10:34;;;;;;;26.63;23.33;;;4.90;99.90;;;;;;5064559;28;20172;-72
2022/03/17 01:13:02;;;;;;;25.23;22.50;;;4.90;99.90;;;;;;5069466;28;20277;-73
2022/03/17 01:15:29;;;;;;;25.67;22.97;;;4.90;99.90;;;;;;5074399;28;20669;-73
2022/03/17 01:17:55;;;;;;;27.40;24.50;;;4.90;99.90;;;;;;5068932;28;20187;-74
2022/03/17 01:20:21;;;;;;;26.63;23.77;;;4.80;99.90;;;;;;5065105;28;20182;-74
2022/03/17 01:22:46;;;;;;;28.93;24.60;;;4.70;99.90;;;;;;5071186;28;20252;-74
2022/03/17 01:25:12;;;;;;;27.53;23.53;;;4.70;99.90;;;;;;5057600;28;20349;-74
2022/03/17 01:27:38;;;;;;;30.50;25.77;;;4.60;99.90;;;;;;5064403;28;20266;-73
2022/03/17 01:30:07;;;;;;;27.63;24.03;;;4.60;99.90;;;;;;5060841;28;20179;-73
2022/03/17 01:32:33;;;;;;;27.93;23.67;;;4.60;99.90;;;;;;5065104;28;20674;-73
2022/03/17 01:34:59;;;;;;;26.77;23.20;;;4.60;99.90;;;;;;5067445;28;20195;-72
2022/03/17 01:37:25;;;;;;;27.23;23.37;;;4.50;99.90;;;;;;5070331;28;20524;-74
2022/03/17 01:39:50;;;;;;;31.13;25.67;;;4.50;99.90;;;;;;5057855;28;20320;-73
2022/03/17 01:42:16;;;;;;;26.93;23.70;;;4.40;99.90;;;;;;5070308;28;20171;-72
2022/03/17 01:44:42;;;;;;;27.43;24.53;;;4.40;99.90;;;;;;5062767;28;20339;-74
2022/03/17 01:49:52;;;;;;;28.10;24.60;;;4.30;99.90;;;;;;5054830;28;20691;-74
2022/03/17 01:52:18;;;;;;;27.17;23.90;;;4.30;99.90;;;;;;5067092;28;20176;-72
2022/03/17 01:54:44;;;;;;;28.03;23.83;;;4.30;99.90;;;;;;5063625;28;20249;-72
2022/03/17 01:57:11;;;;;;;27.23;23.87;;;4.30;99.90;;;;;;5064297;28;20787;-71
2022/03/17 01:59:38;;;;;;;28.87;24.73;;;4.30;99.90;;;;;;5059297;28;20214;-72
2022/03/17 02:02:06;;;;;;;26.10;23.23;;;4.20;99.90;;;;;;5065075;28;20203;-71
2022/03/17 02:04:31;;;;;;;25.70;22.97;;;4.20;99.90;;;;;;5055138;28;20207;-72
2022/03/17 02:06:57;;;;;;;27.00;22.17;;;4.20;99.90;;;;;;5067564;28;20242;-72
2022/03/17 02:09:26;;;;;;;27.10;23.23;;;4.20;99.90;;;;;;5067646;28;20182;-72
2022/03/17 02:15:08;;;;;;;27.77;24.37;;;4.10;99.90;;;;;;5060473;28;20211;-72
2022/03/17 02:17:43;;;;;;;25.83;22.63;;;4.00;99.90;;;;;;5056104;28;20192;-72
2022/03/17 02:20:11;;;;;;;26.70;22.60;;;4.00;99.90;;;;;;5056179;28;20202;-71
2022/03/17 02:22:41;;;;;;;26.07;22.90;;;4.00;99.90;;;;;;5064745;28;20175;-70
2022/03/17 02:27:51;;;;;;;26.13;23.03;;;4.00;99.90;;;;;;5060313;28;20178;-73
2022/03/17 02:30:19;;;;;;;28.87;23.33;;;4.00;99.90;;;;;;5055737;28;20179;-70
2022/03/17 02:32:45;;;;;;;25.87;23.00;;;3.90;99.90;;;;;;5058225;28;20175;-73
2022/03/17 02:35:17;;;;;;;27.33;24.47;;;4.00;99.90;;;;;;5057173;28;20211;-72
2022/03/17 02:37:43;;;;;;;27.67;23.40;;;4.00;99.90;;;;;;5065754;28;20214;-72
2022/03/17 02:40:10;;;;;;;29.30;24.17;;;4.00;99.90;;;;;;5068653;28;20211;-72
2022/03/17 02:42:37;;;;;;;28.73;24.20;;;4.00;99.90;;;;;;5058345;28;20168;-72
2022/03/17 02:45:05;;;;;;;31.20;26.20;;;3.90;99.90;;;;;;5056818;28;20221;-72
2022/03/17 02:47:31;;;;;;;25.97;23.20;;;3.80;99.90;;;;;;5061862;28;20206;-72
2022/03/17 02:49:57;;;;;;;28.53;24.13;;;3.80;99.90;;;;;;5068963;28;20595;-73
2022/03/17 02:52:24;;;;;;;31.13;25.03;;;3.70;99.90;;;;;;5061907;28;20184;-72
2022/03/17 02:54:52;;;;;;;28.17;23.77;;;3.70;99.90;;;;;;5058820;28;20621;-72
2022/03/17 02:57:18;;;;;;;29.23;24.40;;;3.70;99.90;;;;;;5063609;28;20251;-72
2022/03/17 02:59:46;;;;;;;31.33;25.83;;;3.70;99.90;;;;;;5061577;28;20179;-70
2022/03/17 03:02:13;;;;;;;28.20;24.13;;;3.70;99.90;;;;;;5059766;28;20220;-69
2022/03/17 03:04:39;;;;;;;27.33;23.83;;;3.60;99.90;;;;;;5054034;28;20215;-73
2022/03/17 03:07:06;;;;;;;28.47;24.43;;;3.60;99.90;;;;;;5064243;28;20173;-73
2022/03/17 03:09:32;;;;;;;27.40;23.43;;;3.60;99.90;;;;;;5058476;28;20176;-72
2022/03/17 03:11:58;;;;;;;27.40;23.77;;;3.70;99.90;;;;;;5059909;28;20183;-72
2022/03/17 03:14:25;;;;;;;28.27;24.03;;;3.70;99.90;;;;;;5060921;28;20577;-73
2022/03/17 03:16:50;;;;;;;28.53;24.10;;;3.60;99.90;;;;;;5057175;28;20180;-71
2022/03/17 03:19:16;;;;;;;27.83;23.40;;;3.60;99.90;;;;;;5055276;28;20175;-73
2022/03/17 03:21:46;;;;;;;29.93;23.70;;;3.50;99.90;;;;;;5059235;28;20311;-73
2022/03/17 03:24:13;;;;;;;26.70;22.67;;;3.50;99.90;;;;;;5057534;28;20215;-70
2022/03/17 03:26:42;;;;;;;28.87;23.20;;;3.50;99.90;;;;;;5061662;28;20520;-72
2022/03/17 03:29:27;;;;;;;30.50;24.37;;;3.50;99.90;;;;;;5054944;28;20176;-72
2022/03/17 03:31:56;;;;;;;26.27;22.67;;;3.50;99.90;;;;;;5061389;28;20171;-72
2022/03/17 03:34:23;;;;;;;29.20;23.87;;;3.50;99.90;;;;;;5058028;28;20251;-72
2022/03/17 03:39:34;;;;;;;26.17;21.70;;;3.50;99.90;;;;;;5055705;28;20305;-71
2022/03/17 03:42:01;;;;;;;28.40;23.60;;;3.50;99.90;;;;;;5061001;28;20190;-72
2022/03/17 03:44:27;;;;;;;26.77;23.07;;;3.50;99.90;;;;;;5057237;28;20211;-73
2022/03/17 03:46:53;;;;;;;27.30;23.33;;;3.50;99.90;;;;;;5062993;28;20175;-72
2022/03/17 03:49:19;;;;;;;27.20;23.33;;;3.50;99.90;;;;;;5067839;28;20187;-73
2022/03/17 03:51:44;;;;;;;26.97;23.37;;;3.40;99.90;;;;;;5063282;28;20171;-73
2022/03/17 03:54:13;;;;;;;29.00;23.57;;;3.40;99.90;;;;;;5061883;28;20227;-73
2022/03/17 03:56:59;;;;;;;25.70;22.20;;;3.40;99.90;;;;;;5058706;28;20186;-73
2022/03/17 03:59:28;;;;;;;24.00;21.40;;;3.40;99.90;;;;;;5061168;28;20528;-72
2022/03/17 04:02:06;;;;;;;28.13;23.23;;;3.40;99.90;;;;;;5065884;28;20167;-72
2022/03/17 04:04:34;;;;;;;25.47;21.43;;;3.30;99.90;;;;;;5061502;28;20653;-72
2022/03/17 04:07:03;;;;;;;25.93;22.00;;;3.40;99.90;;;;;;5070289;28;20199;-72
2022/03/17 04:09:31;;;;;;;25.33;22.63;;;3.30;99.90;;;;;;5066804;28;20207;-72
2022/03/17 04:11:56;;;;;;;25.83;21.70;;;3.30;99.90;;;;;;5065148;28;20175;-72
2022/03/17 04:14:23;;;;;;;27.33;22.93;;;3.30;99.90;;;;;;5061450;28;20668;-71
2022/03/17 04:16:49;;;;;;;26.50;22.80;;;3.30;99.90;;;;;;5066740;28;20175;-72
2022/03/17 04:19:15;;;;;;;24.63;22.00;;;3.40;99.90;;;;;;5067189;28;20182;-72
2022/03/17 04:21:41;;;;;;;25.40;22.67;;;3.30;99.90;;;;;;5069382;28;20246;-72
2022/03/17 04:24:07;;;;;;;26.83;22.03;;;3.20;99.90;;;;;;5067908;28;20677;-72
2022/03/17 04:26:33;;;;;;;26.60;22.40;;;3.20;99.90;;;;;;5069934;28;20194;-72
2022/03/17 04:28:58;;;;;;;27.73;23.17;;;3.20;99.90;;;;;;5059552;28;20172;-72
2022/03/17 04:31:24;;;;;;;29.27;23.63;;;3.20;99.90;;;;;;5067855;28;20179;-72
2022/03/17 04:33:51;;;;;;;26.47;22.60;;;3.20;99.90;;;;;;5064437;28;20282;-72
2022/03/17 04:36:18;;;;;;;30.00;23.27;;;3.20;99.90;;;;;;5063927;28;20630;-72
2022/03/17 04:38:44;;;;;;;26.00;22.27;;;3.30;99.90;;;;;;5063355;28;20226;-72
2022/03/17 04:41:10;;;;;;;26.60;22.67;;;3.30;99.90;;;;;;5065031;28;20179;-72
2022/03/17 04:43:37;;;;;;;25.47;22.13;;;3.30;99.90;;;;;;5063137;28;20210;-72
2022/03/17 04:46:03;;;;;;;26.37;22.63;;;3.40;99.90;;;;;;5062074;28;20708;-70
2022/03/17 04:48:28;;;;;;;24.77;21.53;;;3.40;99.90;;;;;;5066495;28;20545;-71
2022/03/17 04:50:54;;;;;;;28.07;22.23;;;3.30;99.90;;;;;;5058140;28;20179;-71
2022/03/17 04:53:32;;;;;;;25.77;22.47;;;3.40;99.90;;;;;;5065448;28;20203;-71
2022/03/17 04:55:59;;;;;;;28.23;23.33;;;3.40;99.90;;;;;;5070771;28;20649;-70
2022/03/17 04:58:25;;;;;;;27.03;23.73;;;3.50;99.90;;;;;;5067452;28;20359;-70
2022/03/17 05:00:53;;;;;;;28.13;23.47;;;3.40;99.90;;;;;;5064709;28;20651;-72
2022/03/17 05:03:19;;;;;;;28.73;23.40;;;3.40;99.90;;;;;;5062178;28;20279;-72
2022/03/17 05:05:46;;;;;;;29.00;23.17;;;3.40;99.90;;;;;;5058124;28;20187;-73
2022/03/17 05:08:11;;;;;;;28.43;24.23;;;3.50;99.90;;;;;;5070556;28;20183;-72
2022/03/17 05:10:37;;;;;;;29.73;24.67;;;3.50;99.90;;;;;;5066420;28;20171;-71
2022/03/17 05:13:07;;;;;;;29.53;25.63;;;3.50;99.90;;;;;;5065744;28;20180;-72
2022/03/17 05:15:34;;;;;;;29.20;25.20;;;3.40;99.90;;;;;;5066789;28;20304;-72
2022/03/17 05:18:00;;;;;;;30.57;25.53;;;3.20;99.90;;;;;;5073193;28;20228;-74
2022/03/17 05:20:26;;;;;;;32.80;24.13;;;3.20;99.90;;;;;;5068687;28;20269;-73
2022/03/17 05:22:52;;;;;;;29.73;24.57;;;3.10;99.90;;;;;;5067043;28;20233;-72
2022/03/17 05:25:19;;;;;;;28.77;24.07;;;3.20;99.90;;;;;;5070986;28;20186;-73
2022/03/17 05:27:45;;;;;;;28.97;25.23;;;3.20;99.90;;;;;;5066446;28;20172;-73
2022/03/17 05:30:13;;;;;;;31.33;25.87;;;3.10;99.90;;;;;;5063431;28;20176;-73
2022/03/17 05:32:43;;;;;;;28.40;25.10;;;3.10;99.90;;;;;;5063249;28;20175;-73
2022/03/17 05:35:10;;;;;;;31.63;24.47;;;3.00;99.90;;;;;;5064036;28;20203;-74
2022/03/17 05:37:35;;;;;;;28.27;22.87;;;3.00;99.90;;;;;;5075676;28;20195;-73
2022/03/17 05:40:05;;;;;;;26.30;23.17;;;3.00;99.90;;;;;;5065214;28;20184;-73
2022/03/17 05:42:31;;;;;;;29.43;24.77;;;3.10;99.90;;;;;;5066539;28;20167;-73
2022/03/17 05:44:56;;;;;;;28.73;22.83;;;3.10;99.90;;;;;;5070858;28;20374;-73
2022/03/17 05:47:22;;;;;;;27.67;23.07;;;3.20;99.90;;;;;;5067125;28;20266;-73
2022/03/17 05:49:48;;;;;;;27.37;23.50;;;3.20;99.90;;;;;;5067191;28;20171;-73
2022/03/17 05:52:14;;;;;;;26.50;22.90;;;3.30;99.90;;;;;;5060808;28;20274;-72
2022/03/17 05:54:40;;;;;;;32.73;25.07;;;3.30;99.90;;;;;;5067429;28;20195;-73
2022/03/17 05:57:06;;;;;;;30.03;24.30;;;3.30;99.90;;;;;;5072274;28;20179;-73
2022/03/17 05:59:31;;;;;;;26.73;23.83;;;3.30;99.90;;;;;;5067042;28;20684;-79
2022/03/17 06:01:58;;;;;;;31.07;26.10;;;3.20;99.90;;;;;;5064003;28;20249;-78
2022/03/17 06:04:24;;;;;;;30.67;26.03;;;3.20;99.90;;;;;;5065645;28;20208;-79
2022/03/17 06:06:50;;;;;;;28.20;24.30;;;3.20;99.90;;;;;;5066946;28;20598;-79
2022/03/17 06:09:16;;;;;;;29.23;23.80;;;3.30;99.90;;;;;;5069004;28;20179;-79
2022/03/17 06:11:42;;;;;;;31.10;24.30;;;3.50;99.90;;;;;;5069054;28;20175;-78
2022/03/17 06:14:07;;;;;;;32.50;26.47;;;3.50;99.90;;;;;;5069929;28;20561;-77
2022/03/17 06:16:33;;;;;;;32.00;25.37;;;3.60;99.90;;;;;;5070031;28;20195;-78
2022/03/17 06:18:59;;;;;;;32.67;24.97;;;3.70;99.90;;;;;;5064696;28;20230;-78
2022/03/17 06:21:25;;;;;;;28.10;23.43;;;3.80;99.90;;;;;;5066861;28;20795;-79
2022/03/17 06:23:51;;;;;;;32.73;26.70;;;3.90;99.90;;;;;;5063801;28;20203;-73
2022/03/17 06:26:16;;;;;;;30.43;26.30;;;4.00;99.90;;;;;;5062840;28;20187;-71
2022/03/17 06:28:42;;;;;;;29.50;24.03;;;4.10;99.90;;;;;;5065687;28;20184;-70
2022/03/17 06:31:07;;;;;;;28.47;24.53;;;4.20;99.90;;;;;;5061101;28;20180;-72
2022/03/17 06:33:33;;;;;;;27.53;24.27;;;4.40;99.90;;;;;;5061978;28;20214;-74
2022/03/17 06:35:59;;;;;;;31.40;25.07;;;4.50;99.90;;;;;;5066969;28;20664;-71
2022/03/17 06:38:25;;;;;;;32.03;24.57;;;4.50;99.90;;;;;;5064594;28;20180;-72
2022/03/17 06:40:51;;;;;;;25.43;22.23;;;4.70;99.90;;;;;;5061574;28;20222;-71
2022/03/17 06:43:17;;;;;;;26.83;23.93;;;4.90;99.90;;;;;;5064741;28;20213;-71
2022/03/17 06:45:44;;;;;;;28.40;25.00;;;5.00;99.90;;;;;;5058965;28;20174;-71
2022/03/17 06:48:10;;;;;;;28.83;24.70;;;5.10;99.90;;;;;;5063341;28;20674;-73
2022/03/17 06:50:35;;;;;;;26.60;23.63;;;5.20;99.90;;;;;;5062019;28;20171;-73
2022/03/17 06:53:01;;;;;;;26.47;23.57;;;5.20;99.90;;;;;;5060601;28;20186;-72
2022/03/17 06:55:27;;;;;;;26.30;23.03;;;5.30;99.90;;;;;;5065741;28;20229;-72
2022/03/17 06:57:52;;;;;;;30.17;23.40;;;5.40;99.90;;;;;;5064693;28;20504;-72
2022/03/17 07:00:19;;;;;;;27.97;23.00;;;5.70;99.90;;;;;;5064839;28;20187;-73
2022/03/17 07:02:46;;;;;;;27.17;24.23;;;5.80;99.90;;;;;;5063711;28;20182;-74
2022/03/17 07:05:12;;;;;;;27.03;22.70;;;5.80;99.90;;;;;;5061019;28;20683;-73
2022/03/17 07:07:38;;;;;;;26.40;23.60;;;5.90;99.90;;;;;;5063693;28;20176;-72
2022/03/17 07:10:08;;;;;;;26.63;22.90;;;5.90;99.90;;;;;;5067549;28;20230;-73
2022/03/17 07:12:35;;;;;;;29.20;24.80;;;6.10;99.90;;;;;;5059743;28;20183;-73
2022/03/17 07:15:01;;;;;;;29.97;24.27;;;6.10;99.90;;;;;;5059322;28;20200;-74
2022/03/17 07:17:39;;;;;;;32.53;24.90;;;6.20;99.90;;;;;;5055608;28;20262;-71
2022/03/17 07:20:25;;;;;;;30.17;25.73;;;6.40;99.90;;;;;;5058301;28;20176;-72
2022/03/17 07:22:51;;;;;;;26.87;23.73;;;6.40;99.90;;;;;;5058005;28;20651;-73
2022/03/17 07:25:17;;;;;;;27.30;24.38;;;6.40;99.90;;;;;;5059201;28;20211;-72
2022/03/17 07:27:48;;;;;;;26.90;24.00;;;6.70;99.90;;;;;;5066378;28;20171;-72
2022/03/17 07:30:19;;;;;;;26.27;22.93;;;6.80;99.90;;;;;;5066163;28;20190;-72
2022/03/17 07:32:48;;;;;;;26.75;23.40;;;6.90;99.90;;;;;;5060913;28;20322;-72
2022/03/17 07:35:14;;;;;;;26.70;23.80;;;7.00;99.90;;;;;;5060362;28;20191;-71
2022/03/17 07:37:41;;;;;;;25.30;22.55;;;7.10;99.90;;;;;;5064226;28;20207;-79
2022/03/17 07:40:07;;;;;;;27.30;24.48;;;7.20;99.90;;;;;;5068583;28;20221;-75
2022/03/17 07:42:33;;;;;;;26.17;23.40;;;7.30;99.90;;;;;;5056760;28;20270;-70
2022/03/17 07:44:58;;;;;;;31.88;24.55;;;7.60;99.90;;;;;;5057273;28;20302;-73
2022/03/17 07:47:24;;;;;;;26.63;22.55;;;7.70;99.90;;;;;;5061961;28;20585;-72
2022/03/17 07:49:50;;;;;;;25.70;22.15;;;7.80;99.90;;;;;;5064406;28;20398;-73
2022/03/17 07:52:16;;;;;;;27.88;24.98;;;8.00;99.90;;;;;;5067762;28;20178;-71
2022/03/17 07:54:42;;;;;;;30.33;23.52;;;8.00;99.90;;;;;;5061063;28;20677;-72
2022/03/17 07:57:08;;;;;;;27.95;25.05;;;8.20;99.90;;;;;;5066368;28;20187;-73
2022/03/17 07:59:34;;;;;;;26.17;23.27;;;8.30;99.90;;;;;;5061505;28;20175;-73
2022/03/17 08:01:59;;;;;;;25.73;22.83;;;8.30;99.90;;;;;;5066714;28;20175;-76
2022/03/17 08:04:25;;;;;;;27.13;23.45;;;8.50;99.90;;;;;;5062914;28;20222;-74
2022/03/17 08:06:53;;;;;;;27.15;23.15;;;8.80;99.90;;;;;;5060458;28;20186;-74
2022/03/17 08:09:20;;;;;;;29.65;23.55;;;9.10;99.90;;;;;;5058418;28;20164;-73
2022/03/17 08:11:49;;;;;;;27.55;23.20;;;9.10;99.90;;;;;;5065498;28;20187;-74
2022/03/17 08:14:16;;;;;;;26.55;22.58;;;9.20;99.90;;;;;;5064125;28;20236;-73
2022/03/17 08:16:43;;;;;;;25.58;22.98;;;9.50;99.90;;;;;;5063966;28;20204;-74
2022/03/17 08:19:10;;;;;;;28.58;25.65;;;9.70;99.90;;;;;;5056929;28;20189;-74
2022/03/17 08:21:36;;;;;;;26.48;23.58;;;9.60;99.90;;;;;;5069440;28;20526;-74
2022/03/17 08:24:02;;;;;;;25.85;23.05;;;9.50;99.90;;;;;;5073949;28;20214;-74
2022/03/17 08:26:28;;;;;;;25.58;22.88;;;9.40;99.90;;;;;;5056058;28;20187;-73
2022/03/17 08:28:53;;;;;;;28.55;23.88;;;9.40;99.90;;;;;;5062790;28;20176;-72
2022/03/17 08:31:19;;;;;;;24.85;22.10;;;9.40;99.90;;;;;;5059307;28;20183;-73
2022/03/17 08:33:45;;;;;;;26.42;23.60;;;9.40;99.90;;;;;;5061170;28;20203;-74
2022/03/17 08:36:10;;;;;;;26.85;23.95;;;9.40;99.90;;;;;;5070885;28;20180;-75
2022/03/17 08:38:36;;;;;;;26.85;23.88;;;9.70;99.90;;;;;;5069047;28;20180;-76
2022/03/17 08:41:02;;;;;;;26.38;23.55;;;9.80;99.90;;;;;;5061921;28;20196;-76
2022/03/17 08:43:28;;;;;;;27.05;23.45;;;10.10;99.90;;;;;;5063405;28;21054;-77
2022/03/17 08:51:26;;;;;;;29.80;25.10;;;10.50;99.90;;;;;;5069817;28;20194;-74
2022/03/17 08:53:52;;;;;;;27.10;24.02;;;10.50;99.90;;;;;;5064079;28;20207;-74
2022/03/17 08:56:18;;;;;;;27.58;23.55;;;10.70;99.90;;;;;;5063928;28;20179;-74
2022/03/17 08:58:44;;;;;;;30.40;25.30;;;10.70;99.90;;;;;;5066699;28;20551;-73
2022/03/17 09:01:10;;;;;;;26.73;23.92;;;10.80;99.90;;;;;;5070397;28;20181;-73
2022/03/17 09:03:36;;;;;;;28.25;25.23;;;10.90;99.90;;;;;;5067254;28;20298;-77
2022/03/17 09:06:02;;;;;;;29.02;25.48;;;10.80;99.90;;;;;;5063482;28;20258;-77
2022/03/17 09:08:28;;;;;;;27.58;24.70;;;10.80;99.90;;;;;;5073040;28;20634;-76
2022/03/17 09:10:57;;;;;;;29.05;23.08;;;11.00;99.90;;;;;;5069900;28;20222;-77
2022/03/17 09:13:28;;;;;;;29.33;26.23;;;11.40;99.90;;;;;;5065190;28;20207;-74
2022/03/17 09:15:55;;;;;;;27.60;24.80;;;11.60;99.90;;;;;;5069423;28;20199;-76
2022/03/17 09:18:22;;;;;;;26.25;23.45;;;12.00;99.90;;;;;;5065459;28;20191;-75
2022/03/17 09:20:48;;;;;;;26.58;23.85;;;12.20;99.90;;;;;;5069662;28;20630;-75
2022/03/17 09:23:13;;;;;;;27.17;22.48;;;12.40;99.90;;;;;;5082688;28;20224;-76
2022/03/17 09:25:40;;;;;;;26.73;23.35;;;12.70;99.90;;;;;;5069942;28;20199;-80
2022/03/17 09:28:06;;;;;;;27.00;23.98;;;12.90;99.90;;;;;;5074909;28;20182;-79
2022/03/17 09:30:32;;;;;;;25.48;22.95;;;12.90;99.90;;;;;;5068161;28;20186;-75
2022/03/17 09:32:59;;;;;;;27.15;24.35;;;13.00;99.90;;;;;;5068457;28;20188;-76
2022/03/17 09:35:25;;;;;;;26.15;23.42;;;13.10;99.90;;;;;;5068232;28;20171;-75
2022/03/17 09:37:51;;;;;;;26.33;23.73;;;13.20;99.90;;;;;;5073409;28;20536;-76
2022/03/17 09:40:17;;;;;;;27.40;24.50;;;13.10;99.90;;;;;;5065501;28;20250;-77
2022/03/17 09:42:43;;;;;;;27.75;24.27;;;13.10;99.90;;;;;;5072875;28;20716;-76
2022/03/17 09:45:10;;;;;;;26.40;23.83;;;13.20;99.90;;;;;;5075680;28;20298;-76
2022/03/17 09:47:38;;;;;;;26.88;23.77;;;13.10;99.90;;;;;;5067356;28;20573;-75
2022/03/17 09:50:07;;;;;;;25.80;23.20;;;13.30;99.90;;;;;;5067448;28;20172;-72
2022/03/17 09:52:37;;;;;;;24.92;22.30;;;13.50;99.90;;;;;;5065779;28;20167;-72
2022/03/17 09:55:04;;;;;;;25.58;22.88;;;13.90;99.90;;;;;;5072771;28;20206;-73
2022/03/17 09:57:31;;;;;;;29.20;23.95;;;14.10;99.90;;;;;;5068272;28;20175;-74
2022/03/17 09:59:58;;;;;;;26.70;24.00;;;14.50;99.90;;;;;;5066375;28;20607;-73
2022/03/17 10:02:25;;;;;;;28.70;24.02;;;14.60;99.90;;;;;;5080894;28;20184;-73
2022/03/17 10:04:51;;;;;;;26.73;24.13;;;14.60;99.90;;;;;;5065304;28;20651;-73
2022/03/17 10:07:19;;;;;;;24.38;22.02;;;14.80;99.90;;;;;;5066398;28;20682;-74
2022/03/17 10:09:45;;;;;;;26.23;23.67;;;14.80;99.90;;;;;;5063415;28;20186;-73
2022/03/17 10:12:14;;;;;;;26.20;23.05;;;14.90;99.90;;;;;;5067015;28;20228;-73
2022/03/17 10:14:45;;;;;;;26.75;24.15;;;15.20;99.90;;;;;;5061137;28;20206;-73
2022/03/17 10:17:31;;;;;;;27.30;22.08;;;15.40;99.90;;;;;;5062587;28;20215;-73
2022/03/17 10:20:22;;;;;;;25.50;22.63;;;15.40;99.90;;;;;;5068860;28;20183;-73
2022/03/17 10:22:56;;;;;;;26.98;24.17;;;15.80;99.90;;;;;;5058874;28;20258;-71
2022/03/17 10:25:29;;;;;;;22.83;20.52;;;16.00;99.90;;;;;;5061202;28;20286;-71
2022/03/17 10:27:56;;;;;;;24.77;22.17;;;15.90;99.50;;;;;;5054758;28;20183;-73
2022/03/17 10:30:34;;;;;;;25.40;22.23;;;16.00;99.90;;;;;;5069766;28;20730;-73
2022/03/17 10:33:06;;;;;;;24.92;22.05;;;16.10;99.20;;;;;;5057742;28;20647;-73
2022/03/17 10:35:36;;;;;;;20.25;18.17;;;16.50;97.90;;;;;;5066982;28;20180;-72
2022/03/17 10:38:27;;;;;;;22.50;20.05;;;16.50;93.10;;;;;;5064594;28;20186;-72
2022/03/17 10:41:03;;;;;;;26.15;19.23;;;16.50;90.90;;;;;;5062458;28;20201;-73
2022/03/17 10:43:29;;;;;;;21.67;18.42;;;16.00;90.10;;;;;;5062619;28;20978;-74
2022/03/17 10:46:08;;;;;;;23.02;19.55;;;15.80;90.80;;;;;;5068257;28;20183;-73
2022/03/17 10:48:34;;;;;;;18.70;16.83;;;15.80;90.70;;;;;;5058245;28;20743;-73
2022/03/17 10:51:00;;;;;;;18.20;15.80;;;15.70;89.60;;;;;;5060776;28;20647;-75
2022/03/17 10:53:30;;;;;;;18.38;15.88;;;15.90;89.70;;;;;;5066621;28;20297;-73
2022/03/17 10:56:12;;;;;;;16.90;15.30;;;16.00;88.70;;;;;;5066780;28;20261;-73
2022/03/17 10:58:45;;;;;;;17.95;15.20;;;15.90;85.50;;;;;;5068219;28;20179;-71
2022/03/17 11:01:12;;;;;;;18.77;16.88;;;15.90;84.70;;;;;;5067935;28;20185;-71
2022/03/17 11:03:38;;;;;;;16.15;14.45;;;15.70;83.70;;;;;;5060489;28;20225;-71
2022/03/17 11:06:06;;;;;;;17.17;15.48;;;15.80;85.60;;;;;;5063523;28;20181;-72
2022/03/17 11:08:32;;;;;;;16.27;14.23;;;15.80;83.30;;;;;;5060355;28;20183;-72
2022/03/17 11:10:58;;;;;;;18.25;14.85;;;15.80;82.20;;;;;;5063741;28;20183;-79
2022/03/17 11:13:24;;;;;;;16.85;15.10;;;15.60;81.40;;;;;;5069247;28;20530;-76
2022/03/17 11:16:01;;;;;;;17.38;15.20;;;15.30;80.00;;;;;;5076122;28;20184;-75
2022/03/17 11:18:33;;;;;;;20.92;17.13;;;15.40;81.70;;;;;;5060660;28;20183;-74
2022/03/17 11:21:20;;;;;;;21.88;18.23;;;15.60;82.60;;;;;;5065102;28;20176;-75
2022/03/17 11:24:06;;;;;;;19.15;16.58;;;15.70;85.60;;;;;;5073542;28;20271;-74
2022/03/17 11:26:39;;;;;;;18.65;16.10;;;15.90;85.80;;;;;;5063854;28;20211;-74
2022/03/17 11:29:12;;;;;;;19.17;17.27;;;16.00;85.30;;;;;;5061736;28;20558;-74
2022/03/17 11:31:56;;;;;;;21.40;18.23;;;16.00;84.10;;;;;;5064554;28;20178;-74
2022/03/17 11:34:42;;;;;;;19.27;16.98;;;15.60;83.20;;;;;;5067599;28;20206;-73
2022/03/17 11:37:20;;;;;;;19.27;16.63;;;15.40;84.00;;;;;;5075529;28;20184;-74
2022/03/17 11:39:51;;;;;;;18.75;16.83;;;15.70;85.30;;;;;;5063418;28;20551;-74
2022/03/17 11:42:38;;;;;;;19.20;17.10;;;15.70;84.10;;;;;;5071870;28;20732;-73
2022/03/17 11:45:10;;;;;;;20.30;16.92;;;15.70;82.50;;;;;;5059039;28;20691;-74
2022/03/17 11:47:42;;;;;;;19.67;17.58;;;15.80;83.80;;;;;;5064577;28;20167;-74
2022/03/17 11:50:26;;;;;;;16.33;14.55;;;15.80;81.80;;;;;;5065137;28;20677;-74
2022/03/17 11:52:52;;;;;;;18.05;16.17;;;15.80;80.60;;;;;;5065382;28;20207;-75
2022/03/17 11:55:31;;;;;;;16.80;15.10;;;16.00;81.60;;;;;;5066355;28;20223;-75
2022/03/17 11:58:16;;;;;;;16.33;13.73;;;16.30;82.10;;;;;;5073693;28;20266;-75
2022/03/17 12:00:46;;;;;;;14.68;12.73;;;16.50;77.20;;;;;;5064145;28;20674;-75
2022/03/17 12:03:12;;;;;;;17.67;13.40;;;16.50;72.90;;;;;;5058672;28;20184;-74
2022/03/17 12:05:43;;;;;;;17.70;12.93;;;16.00;75.00;;;;;;5062564;28;21479;-75
2022/03/17 12:08:16;;;;;;;16.08;13.60;;;15.60;74.50;;;;;;5065476;28;20175;-74
2022/03/17 12:11:08;;;;;;;18.67;15.95;;;15.70;76.70;;;;;;5068383;28;20635;-73
2022/03/17 12:13:36;;;;;;;17.10;15.15;;;15.80;79.90;;;;;;5064613;28;20607;-73
2022/03/17 12:16:04;;;;;;;19.00;14.88;;;16.00;79.20;;;;;;5061509;28;20191;-74
2022/03/17 12:18:29;;;;;;;17.45;15.50;;;16.20;79.40;;;;;;5059855;28;20552;-74
2022/03/17 12:20:57;;;;;;;16.38;14.57;;;16.20;77.80;;;;;;5063794;28;20186;-74
2022/03/17 12:23:49;;;;;;;16.75;13.63;;;16.00;76.50;;;;;;5058887;28;20234;-73
2022/03/17 12:26:19;;;;;;;17.27;15.50;;;15.90;77.30;;;;;;5073523;28;20187;-74
2022/03/17 12:28:45;;;;;;;17.02;14.05;;;15.70;77.10;;;;;;5068344;28;20684;-75
2022/03/17 12:31:12;;;;;;;17.58;14.43;;;15.60;77.80;;;;;;5071944;28;20266;-75
2022/03/17 12:33:45;;;;;;;17.48;14.98;;;15.70;78.00;;;;;;5060717;28;20217;-75
2022/03/17 12:36:14;;;;;;;16.95;14.00;;;15.70;78.50;;;;;;5062111;28;20203;-75
2022/03/17 12:38:39;;;;;;;16.30;13.85;;;15.80;77.10;;;;;;5057090;28;20175;-75
2022/03/17 12:41:13;;;;;;;22.05;14.43;;;15.80;77.70;;;;;;5063219;28;20238;-74
2022/03/17 12:43:38;;;;;;;17.10;14.15;;;15.70;78.90;;;;;;5060812;28;20191;-75
2022/03/17 12:46:04;;;;;;;17.23;14.25;;;15.70;78.00;;;;;;5073771;28;20187;-73
2022/03/17 12:48:34;;;;;;;18.27;14.15;;;15.70;77.60;;;;;;5067441;28;20180;-74
2022/03/17 12:51:08;;;;;;;16.88;14.15;;;15.60;78.30;;;;;;5065600;28;20259;-73
2022/03/17 12:53:35;;;;;;;15.88;14.18;;;15.70;77.40;;;;;;5068104;28;20210;-73
2022/03/17 12:56:01;;;;;;;16.45;13.57;;;15.70;76.90;;;;;;5070805;28;20187;-73